sensor_id;sensor_type;location;lat;lon;timestamp;temperature;humidity
25154;DHT22;47555;51.038;6.280;2022-10-16T00:00:34;13.70;99.90
25154;DHT22;47555;51.038;6.280;2022-10-16T00:03:01;13.70;99.90
25154;DHT22;47555;51.038;6.280;2022-10-16T00:05:27;13.70;99.90
25154;DHT22;47555;51.038;6.280;2022-10-16T00:07:53;13.70;99.90
25154;DHT22;47555;51.038;6.280;2022-10-16T00:10:18;13.70;99.90
25154;DHT22;47555;51.038;6.280;2022-10-16T00:12:44;13.80;99.90
25154;DHT22;47555;51.038;6.280;2022-10-16T00:15:09;13.80;99.90
25154;DHT22;47555;51.038;6.280;2022-10-16T00:17:35;13.80;99.90
25154;DHT22;47555;51.038;6.280;2022-10-16T00:20:00;13.80;99.90
25154;DHT22;47555;51.038;6.280;2022-10-16T00:22:26;13.70;99.90
25154;DHT22;47555;51.038;6.280;2022-10-16T00:24:52;13.70;99.90
25154;DHT22;47555;51.038;6.280;2022-10-16T00:27:17;13.70;99.90
25154;DHT22;47555;51.038;6.280;2022-10-16T00:29:43;13.60;99.90
25154;DHT22;47555;51.038;6.280;2022-10-16T00:32:09;13.60;99.90
25154;DHT22;47555;51.038;6.280;2022-10-16T00:34:34;13.70;99.90
25154;DHT22;47555;51.038;6.280;2022-10-16T00:37:00;13.60;99.90
25154;DHT22;47555;51.038;6.280;2022-10-16T00:39:25;13.60;99.90
25154;DHT22;47555;51.038;6.280;2022-10-16T00:41:51;13.50;99.90
25154;DHT22;47555;51.038;6.280;2022-10-16T00:44:49;13.50;99.90
25154;DHT22;47555;51.038;6.280;2022-10-16T00:49:53;13.50;99.90
25154;DHT22;47555;51.038;6.280;2022-10-16T00:52:21;13.40;99.90
25154;DHT22;47555;51.038;6.280;2022-10-16T00:54:49;13.40;99.90
25154;DHT22;47555;51.038;6.280;2022-10-16T00:57:15;13.40;99.90
25154;DHT22;47555;51.038;6.280;2022-10-16T00:59:42;13.40;99.90
25154;DHT22;47555;51.038;6.280;2022-10-16T01:02:11;13.30;99.90
25154;DHT22;47555;51.038;6.280;2022-10-16T01:04:39;13.30;99.90
25154;DHT22;47555;51.038;6.280;2022-10-16T01:12:58;13.40;99.90
25154;DHT22;47555;51.038;6.280;2022-10-16T01:15:50;13.40;99.90
25154;DHT22;47555;51.038;6.280;2022-10-16T01:18:39;13.40;99.90
25154;DHT22;47555;51.038;6.280;2022-10-16T01:21:12;13.50;99.90
25154;DHT22;47555;51.038;6.280;2022-10-16T01:23:51;13.40;99.90
25154;DHT22;47555;51.038;6.280;2022-10-16T01:27:07;13.40;99.90
25154;DHT22;47555;51.038;6.280;2022-10-16T01:29:37;13.40;99.90
25154;DHT22;47555;51.038;6.280;2022-10-16T01:35:09;13.40;99.90
25154;DHT22;47555;51.038;6.280;2022-10-16T01:37:38;13.40;99.90
25154;DHT22;47555;51.038;6.280;2022-10-16T01:40:09;13.40;99.90
25154;DHT22;47555;51.038;6.280;2022-10-16T01:42:42;13.40;99.90
25154;DHT22;47555;51.038;6.280;2022-10-16T01:45:11;13.40;99.90
25154;DHT22;47555;51.038;6.280;2022-10-16T01:47:39;13.40;99.90
25154;DHT22;47555;51.038;6.280;2022-10-16T01:50:06;13.40;99.90
25154;DHT22;47555;51.038;6.280;2022-10-16T01:52:35;13.40;99.90
25154;DHT22;47555;51.038;6.280;2022-10-16T01:55:07;13.40;99.90
25154;DHT22;47555;51.038;6.280;2022-10-16T01:57:37;13.40;99.90
25154;DHT22;47555;51.038;6.280;2022-10-16T02:00:09;13.40;99.90
25154;DHT22;47555;51.038;6.280;2022-10-16T02:02:36;13.40;99.90
25154;DHT22;47555;51.038;6.280;2022-10-16T02:05:44;13.50;99.90
25154;DHT22;47555;51.038;6.280;2022-10-16T02:08:10;13.40;99.90
25154;DHT22;47555;51.038;6.280;2022-10-16T02:10:36;13.40;99.90
25154;DHT22;47555;51.038;6.280;2022-10-16T02:13:14;13.50;99.90
25154;DHT22;47555;51.038;6.280;2022-10-16T02:15:41;13.50;99.90
25154;DHT22;47555;51.038;6.280;2022-10-16T02:18:07;13.60;99.90
25154;DHT22;47555;51.038;6.280;2022-10-16T02:20:40;13.60;99.90
25154;DHT22;47555;51.038;6.280;2022-10-16T02:23:12;13.60;99.90
25154;DHT22;47555;51.038;6.280;2022-10-16T02:25:44;13.60;99.90
25154;DHT22;47555;51.038;6.280;2022-10-16T02:28:27;13.60;99.90
25154;DHT22;47555;51.038;6.280;2022-10-16T02:31:00;13.50;99.90
25154;DHT22;47555;51.038;6.280;2022-10-16T02:33:28;13.50;99.90
25154;DHT22;47555;51.038;6.280;2022-10-16T02:35:55;13.50;99.90
25154;DHT22;47555;51.038;6.280;2022-10-16T02:38:22;13.50;99.90
25154;DHT22;47555;51.038;6.280;2022-10-16T02:40:49;13.50;99.90
25154;DHT22;47555;51.038;6.280;2022-10-16T02:43:14;13.50;99.90
25154;DHT22;47555;51.038;6.280;2022-10-16T02:45:40;13.50;99.90
25154;DHT22;47555;51.038;6.280;2022-10-16T02:48:06;13.40;99.90
25154;DHT22;47555;51.038;6.280;2022-10-16T02:50:31;13.40;99.90
25154;DHT22;47555;51.038;6.280;2022-10-16T02:52:57;13.40;99.90
25154;DHT22;47555;51.038;6.280;2022-10-16T02:55:23;13.30;99.90
25154;DHT22;47555;51.038;6.280;2022-10-16T02:57:48;13.30;99.90
25154;DHT22;47555;51.038;6.280;2022-10-16T03:00:15;13.30;99.90
25154;DHT22;47555;51.038;6.280;2022-10-16T03:02:41;13.30;99.90
25154;DHT22;47555;51.038;6.280;2022-10-16T03:05:07;13.30;99.90
25154;DHT22;47555;51.038;6.280;2022-10-16T03:07:33;13.30;99.90
25154;DHT22;47555;51.038;6.280;2022-10-16T03:09:58;13.30;99.90
25154;DHT22;47555;51.038;6.280;2022-10-16T03:12:26;13.20;99.90
25154;DHT22;47555;51.038;6.280;2022-10-16T03:14:52;13.20;99.90
25154;DHT22;47555;51.038;6.280;2022-10-16T03:17:17;13.20;99.90
25154;DHT22;47555;51.038;6.280;2022-10-16T03:19:43;13.20;99.90
25154;DHT22;47555;51.038;6.280;2022-10-16T03:22:08;13.20;99.90
25154;DHT22;47555;51.038;6.280;2022-10-16T03:24:34;13.10;99.90
25154;DHT22;47555;51.038;6.280;2022-10-16T03:26:59;13.10;99.90
25154;DHT22;47555;51.038;6.280;2022-10-16T03:29:25;13.10;99.90
25154;DHT22;47555;51.038;6.280;2022-10-16T03:31:51;13.10;99.90
25154;DHT22;47555;51.038;6.280;2022-10-16T03:34:17;13.00;99.90
25154;DHT22;47555;51.038;6.280;2022-10-16T03:36:42;13.00;99.90
25154;DHT22;47555;51.038;6.280;2022-10-16T03:39:08;13.00;99.90
25154;DHT22;47555;51.038;6.280;2022-10-16T03:41:33;12.90;99.90
25154;DHT22;47555;51.038;6.280;2022-10-16T03:43:59;12.90;99.90
25154;DHT22;47555;51.038;6.280;2022-10-16T03:46:24;12.90;99.90
25154;DHT22;47555;51.038;6.280;2022-10-16T03:48:50;12.90;99.90
25154;DHT22;47555;51.038;6.280;2022-10-16T03:51:16;12.80;99.90
25154;DHT22;47555;51.038;6.280;2022-10-16T03:53:42;12.80;99.90
25154;DHT22;47555;51.038;6.280;2022-10-16T03:56:07;12.70;99.90
25154;DHT22;47555;51.038;6.280;2022-10-16T03:58:33;12.70;99.90
25154;DHT22;47555;51.038;6.280;2022-10-16T04:00:58;12.60;99.90
25154;DHT22;47555;51.038;6.280;2022-10-16T04:03:24;12.60;99.90
25154;DHT22;47555;51.038;6.280;2022-10-16T04:05:49;12.60;99.90
25154;DHT22;47555;51.038;6.280;2022-10-16T04:08:15;12.60;99.90
25154;DHT22;47555;51.038;6.280;2022-10-16T04:10:44;12.50;99.90
25154;DHT22;47555;51.038;6.280;2022-10-16T04:13:10;12.50;99.90
25154;DHT22;47555;51.038;6.280;2022-10-16T04:15:36;12.50;99.90
25154;DHT22;47555;51.038;6.280;2022-10-16T04:18:03;12.50;99.90
25154;DHT22;47555;51.038;6.280;2022-10-16T04:20:28;12.40;99.90
25154;DHT22;47555;51.038;6.280;2022-10-16T04:22:55;12.40;99.90
25154;DHT22;47555;51.038;6.280;2022-10-16T04:25:20;12.50;99.90
25154;DHT22;47555;51.038;6.280;2022-10-16T04:27:46;12.30;99.90
25154;DHT22;47555;51.038;6.280;2022-10-16T04:30:11;12.30;99.90
25154;DHT22;47555;51.038;6.280;2022-10-16T04:32:38;12.40;99.90
25154;DHT22;47555;51.038;6.280;2022-10-16T04:35:03;12.20;99.90
25154;DHT22;47555;51.038;6.280;2022-10-16T04:37:29;12.20;99.90
25154;DHT22;47555;51.038;6.280;2022-10-16T04:39:54;12.10;99.90
25154;DHT22;47555;51.038;6.280;2022-10-16T04:42:20;12.10;99.90
25154;DHT22;47555;51.038;6.280;2022-10-16T04:44:46;12.10;99.90
25154;DHT22;47555;51.038;6.280;2022-10-16T04:47:12;12.10;99.90
25154;DHT22;47555;51.038;6.280;2022-10-16T04:49:38;12.10;99.90
25154;DHT22;47555;51.038;6.280;2022-10-16T04:52:04;12.10;99.90
25154;DHT22;47555;51.038;6.280;2022-10-16T04:54:29;12.10;99.90
25154;DHT22;47555;51.038;6.280;2022-10-16T04:56:55;12.10;99.90
25154;DHT22;47555;51.038;6.280;2022-10-16T04:59:21;12.00;99.90
25154;DHT22;47555;51.038;6.280;2022-10-16T05:01:47;12.00;99.90
25154;DHT22;47555;51.038;6.280;2022-10-16T05:04:13;11.90;99.90
25154;DHT22;47555;51.038;6.280;2022-10-16T05:06:40;11.90;99.90
25154;DHT22;47555;51.038;6.280;2022-10-16T05:09:05;11.90;99.90
25154;DHT22;47555;51.038;6.280;2022-10-16T05:11:31;11.90;99.90
25154;DHT22;47555;51.038;6.280;2022-10-16T05:13:57;11.90;99.90
25154;DHT22;47555;51.038;6.280;2022-10-16T05:16:22;11.90;99.90
25154;DHT22;47555;51.038;6.280;2022-10-16T05:18:48;11.90;99.90
25154;DHT22;47555;51.038;6.280;2022-10-16T05:21:13;11.90;99.90
25154;DHT22;47555;51.038;6.280;2022-10-16T05:23:39;11.90;99.90
25154;DHT22;47555;51.038;6.280;2022-10-16T05:26:04;11.80;99.90
25154;DHT22;47555;51.038;6.280;2022-10-16T05:28:30;11.80;99.90
25154;DHT22;47555;51.038;6.280;2022-10-16T05:30:57;11.80;99.90
25154;DHT22;47555;51.038;6.280;2022-10-16T05:33:24;11.80;99.90
25154;DHT22;47555;51.038;6.280;2022-10-16T05:35:50;11.90;99.90
25154;DHT22;47555;51.038;6.280;2022-10-16T05:38:17;11.90;99.90
25154;DHT22;47555;51.038;6.280;2022-10-16T05:40:43;11.90;99.90
25154;DHT22;47555;51.038;6.280;2022-10-16T05:43:09;11.90;99.90
25154;DHT22;47555;51.038;6.280;2022-10-16T05:45:34;11.90;99.90
25154;DHT22;47555;51.038;6.280;2022-10-16T05:48:00;11.90;99.90
25154;DHT22;47555;51.038;6.280;2022-10-16T05:50:28;11.90;99.90
25154;DHT22;47555;51.038;6.280;2022-10-16T05:52:53;11.90;99.90
25154;DHT22;47555;51.038;6.280;2022-10-16T05:55:19;12.00;99.90
25154;DHT22;47555;51.038;6.280;2022-10-16T05:57:44;12.00;99.90
25154;DHT22;47555;51.038;6.280;2022-10-16T06:00:10;12.00;99.90
25154;DHT22;47555;51.038;6.280;2022-10-16T06:02:36;12.00;99.90
25154;DHT22;47555;51.038;6.280;2022-10-16T06:05:01;12.00;99.90
25154;DHT22;47555;51.038;6.280;2022-10-16T06:07:27;12.00;99.90
25154;DHT22;47555;51.038;6.280;2022-10-16T06:09:53;12.00;99.90
25154;DHT22;47555;51.038;6.280;2022-10-16T06:12:19;12.00;99.90
25154;DHT22;47555;51.038;6.280;2022-10-16T06:14:45;12.10;99.90
25154;DHT22;47555;51.038;6.280;2022-10-16T06:17:12;12.10;99.90
25154;DHT22;47555;51.038;6.280;2022-10-16T06:19:38;12.20;99.90
25154;DHT22;47555;51.038;6.280;2022-10-16T06:22:03;12.20;99.90
25154;DHT22;47555;51.038;6.280;2022-10-16T06:24:29;12.20;99.90
25154;DHT22;47555;51.038;6.280;2022-10-16T06:26:55;12.20;99.90
25154;DHT22;47555;51.038;6.280;2022-10-16T06:29:20;12.30;99.90
25154;DHT22;47555;51.038;6.280;2022-10-16T06:31:46;12.30;99.90
25154;DHT22;47555;51.038;6.280;2022-10-16T06:34:12;12.30;99.90
25154;DHT22;47555;51.038;6.280;2022-10-16T06:36:38;12.40;99.90
25154;DHT22;47555;51.038;6.280;2022-10-16T06:39:04;12.40;99.90
25154;DHT22;47555;51.038;6.280;2022-10-16T06:41:32;12.60;99.90
25154;DHT22;47555;51.038;6.280;2022-10-16T06:43:57;12.70;99.90
25154;DHT22;47555;51.038;6.280;2022-10-16T06:46:24;12.60;99.90
25154;DHT22;47555;51.038;6.280;2022-10-16T06:48:50;12.70;99.90
25154;DHT22;47555;51.038;6.280;2022-10-16T06:51:18;12.80;99.90
25154;DHT22;47555;51.038;6.280;2022-10-16T06:53:46;12.90;99.90
25154;DHT22;47555;51.038;6.280;2022-10-16T06:56:14;12.90;99.90
25154;DHT22;47555;51.038;6.280;2022-10-16T06:58:41;12.90;99.90
25154;DHT22;47555;51.038;6.280;2022-10-16T07:01:07;12.90;99.90
25154;DHT22;47555;51.038;6.280;2022-10-16T07:03:35;12.90;99.90
25154;DHT22;47555;51.038;6.280;2022-10-16T07:06:06;12.80;99.90
25154;DHT22;47555;51.038;6.280;2022-10-16T07:08:33;12.80;99.90
25154;DHT22;47555;51.038;6.280;2022-10-16T07:11:00;12.80;99.90
25154;DHT22;47555;51.038;6.280;2022-10-16T07:13:26;12.80;99.90
25154;DHT22;47555;51.038;6.280;2022-10-16T07:15:51;12.80;99.90
25154;DHT22;47555;51.038;6.280;2022-10-16T07:18:17;12.90;99.90
25154;DHT22;47555;51.038;6.280;2022-10-16T07:20:42;12.90;99.90
25154;DHT22;47555;51.038;6.280;2022-10-16T07:23:08;12.90;99.90
25154;DHT22;47555;51.038;6.280;2022-10-16T07:25:33;13.00;99.90
25154;DHT22;47555;51.038;6.280;2022-10-16T07:27:59;13.00;99.90
25154;DHT22;47555;51.038;6.280;2022-10-16T07:30:24;13.00;99.90
25154;DHT22;47555;51.038;6.280;2022-10-16T07:32:50;13.00;99.90
25154;DHT22;47555;51.038;6.280;2022-10-16T07:35:15;13.10;99.90
25154;DHT22;47555;51.038;6.280;2022-10-16T07:37:44;13.20;99.90
25154;DHT22;47555;51.038;6.280;2022-10-16T07:40:13;13.60;99.90
25154;DHT22;47555;51.038;6.280;2022-10-16T07:42:39;13.90;99.90
25154;DHT22;47555;51.038;6.280;2022-10-16T07:45:05;14.20;99.90
25154;DHT22;47555;51.038;6.280;2022-10-16T07:47:31;14.40;99.90
25154;DHT22;47555;51.038;6.280;2022-10-16T07:49:56;14.70;99.90
25154;DHT22;47555;51.038;6.280;2022-10-16T07:52:22;14.90;99.90
25154;DHT22;47555;51.038;6.280;2022-10-16T07:54:47;15.20;99.90
25154;DHT22;47555;51.038;6.280;2022-10-16T07:57:13;15.30;99.90
25154;DHT22;47555;51.038;6.280;2022-10-16T07:59:44;15.50;99.90
25154;DHT22;47555;51.038;6.280;2022-10-16T08:02:10;15.70;99.90
25154;DHT22;47555;51.038;6.280;2022-10-16T08:04:36;15.90;99.90
25154;DHT22;47555;51.038;6.280;2022-10-16T08:07:01;16.00;99.90
25154;DHT22;47555;51.038;6.280;2022-10-16T08:09:27;16.20;99.90
25154;DHT22;47555;51.038;6.280;2022-10-16T08:11:52;16.40;99.90
25154;DHT22;47555;51.038;6.280;2022-10-16T08:14:18;16.50;99.90
25154;DHT22;47555;51.038;6.280;2022-10-16T08:16:43;16.60;99.90
25154;DHT22;47555;51.038;6.280;2022-10-16T08:19:09;16.70;99.90
25154;DHT22;47555;51.038;6.280;2022-10-16T08:21:34;16.80;99.90
25154;DHT22;47555;51.038;6.280;2022-10-16T08:24:00;16.90;99.90
25154;DHT22;47555;51.038;6.280;2022-10-16T08:26:26;17.00;99.90
25154;DHT22;47555;51.038;6.280;2022-10-16T08:28:52;17.00;99.90
25154;DHT22;47555;51.038;6.280;2022-10-16T08:31:17;17.10;99.90
25154;DHT22;47555;51.038;6.280;2022-10-16T08:33:44;17.10;99.90
25154;DHT22;47555;51.038;6.280;2022-10-16T08:36:12;17.20;99.90
25154;DHT22;47555;51.038;6.280;2022-10-16T08:38:38;17.20;99.90
25154;DHT22;47555;51.038;6.280;2022-10-16T08:43:50;17.30;99.90
25154;DHT22;47555;51.038;6.280;2022-10-16T08:46:38;17.40;99.90
25154;DHT22;47555;51.038;6.280;2022-10-16T08:49:09;17.50;99.90
25154;DHT22;47555;51.038;6.280;2022-10-16T08:51:38;17.60;99.90
25154;DHT22;47555;51.038;6.280;2022-10-16T08:54:06;17.70;99.90
25154;DHT22;47555;51.038;6.280;2022-10-16T08:56:34;17.80;99.90
25154;DHT22;47555;51.038;6.280;2022-10-16T08:59:00;17.90;99.90
25154;DHT22;47555;51.038;6.280;2022-10-16T09:01:41;17.90;99.90
25154;DHT22;47555;51.038;6.280;2022-10-16T09:12:51;18.20;99.90
25154;DHT22;47555;51.038;6.280;2022-10-16T09:15:55;18.30;99.90
25154;DHT22;47555;51.038;6.280;2022-10-16T09:18:26;18.30;95.40
25154;DHT22;47555;51.038;6.280;2022-10-16T09:23:35;18.50;99.30
25154;DHT22;47555;51.038;6.280;2022-10-16T09:26:02;18.60;96.30
25154;DHT22;47555;51.038;6.280;2022-10-16T09:28:29;18.60;97.30
25154;DHT22;47555;51.038;6.280;2022-10-16T09:30:54;18.60;96.60
25154;DHT22;47555;51.038;6.280;2022-10-16T09:33:40;18.70;97.70
25154;DHT22;47555;51.038;6.280;2022-10-16T09:36:06;18.70;95.90
25154;DHT22;47555;51.038;6.280;2022-10-16T09:38:34;18.80;96.80
25154;DHT22;47555;51.038;6.280;2022-10-16T09:41:35;18.80;95.10
25154;DHT22;47555;51.038;6.280;2022-10-16T09:43:59;18.80;95.70
25154;DHT22;47555;51.038;6.280;2022-10-16T09:46:33;18.80;97.30
25154;DHT22;47555;51.038;6.280;2022-10-16T09:49:23;18.80;94.50
25154;DHT22;47555;51.038;6.280;2022-10-16T09:51:50;18.70;94.90
25154;DHT22;47555;51.038;6.280;2022-10-16T09:54:18;18.70;95.50
25154;DHT22;47555;51.038;6.280;2022-10-16T09:56:44;18.70;96.10
25154;DHT22;47555;51.038;6.280;2022-10-16T09:59:13;18.80;97.60
25154;DHT22;47555;51.038;6.280;2022-10-16T10:01:50;18.80;95.00
25154;DHT22;47555;51.038;6.280;2022-10-16T10:04:20;18.80;92.20
25154;DHT22;47555;51.038;6.280;2022-10-16T10:06:49;18.70;93.00
25154;DHT22;47555;51.038;6.280;2022-10-16T10:09:26;18.60;94.00
25154;DHT22;47555;51.038;6.280;2022-10-16T10:12:02;18.50;94.90
25154;DHT22;47555;51.038;6.280;2022-10-16T10:14:36;18.30;95.40
25154;DHT22;47555;51.038;6.280;2022-10-16T10:22:45;17.90;99.80
25154;DHT22;47555;51.038;6.280;2022-10-16T11:20:54;18.70;92.90
25154;DHT22;47555;51.038;6.280;2022-10-16T11:25:51;19.10;93.50
25154;DHT22;47555;51.038;6.280;2022-10-16T11:28:24;19.00;89.40
25154;DHT22;47555;51.038;6.280;2022-10-16T11:31:11;18.80;90.40
25154;DHT22;47555;51.038;6.280;2022-10-16T11:33:51;18.80;91.00
25154;DHT22;47555;51.038;6.280;2022-10-16T11:36:25;18.70;89.60
25154;DHT22;47555;51.038;6.280;2022-10-16T11:42:08;18.90;90.80
25154;DHT22;47555;51.038;6.280;2022-10-16T11:49:56;19.10;89.30
25154;DHT22;47555;51.038;6.280;2022-10-16T11:52:36;19.00;90.30
25154;DHT22;47555;51.038;6.280;2022-10-16T11:55:17;19.00;92.20
25154;DHT22;47555;51.038;6.280;2022-10-16T11:57:48;19.00;93.00
25154;DHT22;47555;51.038;6.280;2022-10-16T12:00:22;19.00;93.70
25154;DHT22;47555;51.038;6.280;2022-10-16T12:02:58;19.00;91.50
25154;DHT22;47555;51.038;6.280;2022-10-16T12:05:34;19.00;87.70
25154;DHT22;47555;51.038;6.280;2022-10-16T12:08:12;19.00;89.10
25154;DHT22;47555;51.038;6.280;2022-10-16T12:10:40;19.10;90.10
25154;DHT22;47555;51.038;6.280;2022-10-16T12:13:37;19.20;91.40
25154;DHT22;47555;51.038;6.280;2022-10-16T12:18:40;19.30;92.00
25154;DHT22;47555;51.038;6.280;2022-10-16T12:21:06;19.40;92.70
25154;DHT22;47555;51.038;6.280;2022-10-16T12:23:48;19.40;92.60
25154;DHT22;47555;51.038;6.280;2022-10-16T12:26:14;19.40;88.40
25154;DHT22;47555;51.038;6.280;2022-10-16T12:28:49;19.40;84.20
25154;DHT22;47555;51.038;6.280;2022-10-16T12:31:16;19.40;86.10
25154;DHT22;47555;51.038;6.280;2022-10-16T12:33:59;19.40;84.50
25154;DHT22;47555;51.038;6.280;2022-10-16T12:36:35;19.40;86.30
25154;DHT22;47555;51.038;6.280;2022-10-16T12:39:01;19.40;87.70
25154;DHT22;47555;51.038;6.280;2022-10-16T12:41:34;19.40;88.30
25154;DHT22;47555;51.038;6.280;2022-10-16T12:44:01;19.40;88.30
25154;DHT22;47555;51.038;6.280;2022-10-16T12:51:40;19.50;86.50
25154;DHT22;47555;51.038;6.280;2022-10-16T12:54:30;19.60;85.30
25154;DHT22;47555;51.038;6.280;2022-10-16T13:02:46;20.00;80.20
25154;DHT22;47555;51.038;6.280;2022-10-16T13:05:51;20.00;75.70
25154;DHT22;47555;51.038;6.280;2022-10-16T13:19:29;20.30;66.30
25154;DHT22;47555;51.038;6.280;2022-10-16T13:27:56;20.30;61.10
25154;DHT22;47555;51.038;6.280;2022-10-16T13:30:27;20.20;57.80
25154;DHT22;47555;51.038;6.280;2022-10-16T13:33:00;20.20;58.70
25154;DHT22;47555;51.038;6.280;2022-10-16T13:35:29;20.10;59.50
25154;DHT22;47555;51.038;6.280;2022-10-16T13:38:15;20.20;60.30
25154;DHT22;47555;51.038;6.280;2022-10-16T13:40:58;20.10;59.60
25154;DHT22;47555;51.038;6.280;2022-10-16T13:43:34;20.10;55.30
25154;DHT22;47555;51.038;6.280;2022-10-16T13:46:17;20.10;51.20
25154;DHT22;47555;51.038;6.280;2022-10-16T13:48:44;20.00;52.00
25154;DHT22;47555;51.038;6.280;2022-10-16T13:51:17;19.90;53.80
25154;DHT22;47555;51.038;6.280;2022-10-16T13:53:44;19.80;54.40
25154;DHT22;47555;51.038;6.280;2022-10-16T13:56:12;19.80;56.50
25154;DHT22;47555;51.038;6.280;2022-10-16T13:58:38;19.70;58.40
25154;DHT22;47555;51.038;6.280;2022-10-16T14:01:11;19.70;58.00
25154;DHT22;47555;51.038;6.280;2022-10-16T14:03:41;19.70;58.90
25154;DHT22;47555;51.038;6.280;2022-10-16T14:19:39;19.70;56.30
25154;DHT22;47555;51.038;6.280;2022-10-16T14:24:49;19.60;63.40
25154;DHT22;47555;51.038;6.280;2022-10-16T14:30:22;19.60;64.80
25154;DHT22;47555;51.038;6.280;2022-10-16T14:35:38;19.60;71.20
25154;DHT22;47555;51.038;6.280;2022-10-16T14:38:06;19.50;72.30
25154;DHT22;47555;51.038;6.280;2022-10-16T14:40:35;19.50;74.30
25154;DHT22;47555;51.038;6.280;2022-10-16T14:43:02;19.50;76.80
25154;DHT22;47555;51.038;6.280;2022-10-16T14:45:31;19.50;78.70
25154;DHT22;47555;51.038;6.280;2022-10-16T14:48:00;19.50;78.70
25154;DHT22;47555;51.038;6.280;2022-10-16T14:50:26;19.50;79.70
25154;DHT22;47555;51.038;6.280;2022-10-16T14:52:52;19.40;80.30
25154;DHT22;47555;51.038;6.280;2022-10-16T14:55:18;19.40;83.40
25154;DHT22;47555;51.038;6.280;2022-10-16T14:57:44;19.40;85.60
25154;DHT22;47555;51.038;6.280;2022-10-16T15:00:22;19.30;86.60
25154;DHT22;47555;51.038;6.280;2022-10-16T15:02:49;19.30;84.80
25154;DHT22;47555;51.038;6.280;2022-10-16T15:05:24;19.20;84.00
25154;DHT22;47555;51.038;6.280;2022-10-16T15:07:50;19.10;85.70
25154;DHT22;47555;51.038;6.280;2022-10-16T15:10:17;19.10;86.20
25154;DHT22;47555;51.038;6.280;2022-10-16T15:12:42;19.00;89.50
25154;DHT22;47555;51.038;6.280;2022-10-16T15:17:50;18.80;97.50
25154;DHT22;47555;51.038;6.280;2022-10-16T15:20:19;18.80;98.00
25154;DHT22;47555;51.038;6.280;2022-10-16T15:22:45;18.80;98.50
25154;DHT22;47555;51.038;6.280;2022-10-16T15:27:54;18.60;99.20
25154;DHT22;47555;51.038;6.280;2022-10-16T15:30:20;18.60;99.20
25154;DHT22;47555;51.038;6.280;2022-10-16T15:32:45;18.60;99.20
25154;DHT22;47555;51.038;6.280;2022-10-16T15:35:11;18.50;99.40
25154;DHT22;47555;51.038;6.280;2022-10-16T15:37:36;18.50;99.40
25154;DHT22;47555;51.038;6.280;2022-10-16T15:40:02;18.40;99.00
25154;DHT22;47555;51.038;6.280;2022-10-16T15:42:28;18.40;98.90
25154;DHT22;47555;51.038;6.280;2022-10-16T15:44:53;18.30;98.80
25154;DHT22;47555;51.038;6.280;2022-10-16T15:47:19;18.30;98.70
25154;DHT22;47555;51.038;6.280;2022-10-16T15:49:44;18.20;98.70
25154;DHT22;47555;51.038;6.280;2022-10-16T15:52:11;18.20;98.80
25154;DHT22;47555;51.038;6.280;2022-10-16T15:54:36;18.20;98.90
25154;DHT22;47555;51.038;6.280;2022-10-16T15:57:02;18.10;98.70
25154;DHT22;47555;51.038;6.280;2022-10-16T15:59:28;18.10;99.50
25154;DHT22;47555;51.038;6.280;2022-10-16T16:01:53;18.10;98.90
25154;DHT22;47555;51.038;6.280;2022-10-16T16:04:19;18.00;98.70
25154;DHT22;47555;51.038;6.280;2022-10-16T16:06:44;18.00;98.70
25154;DHT22;47555;51.038;6.280;2022-10-16T16:09:12;18.00;98.90
25154;DHT22;47555;51.038;6.280;2022-10-16T16:11:38;17.90;98.70
25154;DHT22;47555;51.038;6.280;2022-10-16T16:14:05;17.90;98.90
25154;DHT22;47555;51.038;6.280;2022-10-16T16:16:31;17.80;99.40
25154;DHT22;47555;51.038;6.280;2022-10-16T16:19:02;17.70;99.90
25154;DHT22;47555;51.038;6.280;2022-10-16T16:21:27;17.70;99.90
25154;DHT22;47555;51.038;6.280;2022-10-16T16:23:54;17.60;99.90
25154;DHT22;47555;51.038;6.280;2022-10-16T16:26:27;17.60;99.90
25154;DHT22;47555;51.038;6.280;2022-10-16T16:28:54;17.50;99.90
25154;DHT22;47555;51.038;6.280;2022-10-16T16:31:24;17.50;99.90
25154;DHT22;47555;51.038;6.280;2022-10-16T16:33:50;17.40;99.90
25154;DHT22;47555;51.038;6.280;2022-10-16T16:36:16;17.40;99.90
25154;DHT22;47555;51.038;6.280;2022-10-16T16:38:43;17.30;99.90
25154;DHT22;47555;51.038;6.280;2022-10-16T16:41:16;17.10;99.90
25154;DHT22;47555;51.038;6.280;2022-10-16T16:43:42;17.20;99.90
25154;DHT22;47555;51.038;6.280;2022-10-16T16:46:08;17.10;99.90
25154;DHT22;47555;51.038;6.280;2022-10-16T16:48:33;17.00;99.90
25154;DHT22;47555;51.038;6.280;2022-10-16T16:51:08;17.00;99.90
25154;DHT22;47555;51.038;6.280;2022-10-16T16:53:35;17.00;99.90
25154;DHT22;47555;51.038;6.280;2022-10-16T16:56:02;16.90;99.90
25154;DHT22;47555;51.038;6.280;2022-10-16T16:58:28;16.90;99.90
25154;DHT22;47555;51.038;6.280;2022-10-16T17:00:53;16.80;99.90
25154;DHT22;47555;51.038;6.280;2022-10-16T17:03:19;16.80;99.90
25154;DHT22;47555;51.038;6.280;2022-10-16T17:05:58;16.70;99.90
25154;DHT22;47555;51.038;6.280;2022-10-16T17:08:24;16.70;99.90
25154;DHT22;47555;51.038;6.280;2022-10-16T17:10:50;16.70;99.90
25154;DHT22;47555;51.038;6.280;2022-10-16T17:13:19;16.60;99.90
25154;DHT22;47555;51.038;6.280;2022-10-16T17:15:48;16.60;99.90
25154;DHT22;47555;51.038;6.280;2022-10-16T17:18:15;16.50;99.90
25154;DHT22;47555;51.038;6.280;2022-10-16T17:20:41;16.40;99.90
25154;DHT22;47555;51.038;6.280;2022-10-16T17:23:08;16.50;99.90
25154;DHT22;47555;51.038;6.280;2022-10-16T17:25:36;16.50;99.90
25154;DHT22;47555;51.038;6.280;2022-10-16T17:28:02;16.50;99.90
25154;DHT22;47555;51.038;6.280;2022-10-16T17:30:28;16.40;99.90
25154;DHT22;47555;51.038;6.280;2022-10-16T17:32:53;16.40;99.90
25154;DHT22;47555;51.038;6.280;2022-10-16T17:35:19;16.40;99.90
25154;DHT22;47555;51.038;6.280;2022-10-16T17:37:44;16.40;99.90
25154;DHT22;47555;51.038;6.280;2022-10-16T17:40:10;16.40;99.90
25154;DHT22;47555;51.038;6.280;2022-10-16T17:42:36;16.40;99.90
25154;DHT22;47555;51.038;6.280;2022-10-16T17:45:01;16.40;99.90
25154;DHT22;47555;51.038;6.280;2022-10-16T17:47:27;16.40;99.90
25154;DHT22;47555;51.038;6.280;2022-10-16T17:49:53;16.40;99.90
25154;DHT22;47555;51.038;6.280;2022-10-16T17:52:19;16.40;99.90
25154;DHT22;47555;51.038;6.280;2022-10-16T17:54:45;16.40;99.90
25154;DHT22;47555;51.038;6.280;2022-10-16T17:57:11;16.40;99.90
25154;DHT22;47555;51.038;6.280;2022-10-16T17:59:36;16.40;99.90
25154;DHT22;47555;51.038;6.280;2022-10-16T18:02:02;16.40;99.90
25154;DHT22;47555;51.038;6.280;2022-10-16T18:04:28;16.60;99.90
25154;DHT22;47555;51.038;6.280;2022-10-16T18:06:53;16.40;99.90
25154;DHT22;47555;51.038;6.280;2022-10-16T18:09:20;16.40;99.90
25154;DHT22;47555;51.038;6.280;2022-10-16T18:11:46;16.40;99.90
25154;DHT22;47555;51.038;6.280;2022-10-16T18:14:15;16.40;99.90